Citta Di Savona — IMDS — position and weather

sailwx.info

Track history (hours):
 
Tides and Currents Weather Stations Pressure Air Temp Water Temp Dewpoint Dewpoint Depression Visibility Wind Speed Wind Dir Waves Ship Positions

Citta Di Savona

Last reported at 2017-Mar-24 14:19 UTC. Time now 2017-Mar-24 17:58 UTC.
Position N 44°18' E 008°29'.

Length 31 m; draft 4.2 m.

Type: Tug. MMSI: 247402000.

Date/timePositionNaut miles runAvg speedWind from/ knotsBaromVisibWave heightAir tempDewpointWater temp
2017-Mar-24 14:19N 44°18' E 008°29'0 0.0
2017-Mar-24 13:31N 44°18' E 008°29'0 0.0
2017-Mar-24 12:31N 44°18' E 008°29'0 0.0
2017-Mar-24 11:31N 44°18' E 008°29'3 3.3
2017-Mar-24 10:33N 44°16' E 008°27'1 1.0
2017-Mar-24 09:33N 44°17' E 008°28'3 2.9
2017-Mar-24 08:33N 44°19' E 008°31'0 0.4
2017-Mar-24 07:31N 44°19' E 008°30'1 0.7
2017-Mar-24 06:32N 44°18' E 008°29'0 0.0
2017-Mar-24 05:32N 44°18' E 008°29'0 0.0
2017-Mar-24 04:32N 44°18' E 008°29'0 0.0
2017-Mar-24 03:32N 44°18' E 008°29'0 0.0
2017-Mar-23 22:31N 44°18' E 008°29'0 0.0
2017-Mar-23 21:31N 44°18' E 008°29'0 0.0
2017-Mar-23 20:31N 44°18' E 008°29'0 0.0
2017-Mar-23 19:32N 44°18' E 008°29'0 0.0
2017-Mar-23 08:15N 44°18' E 008°29'0 0.0
2017-Mar-23 07:33N 44°18' E 008°29'0 0.0
2017-Mar-23 06:27N 44°18' E 008°29'0 0.0
2017-Mar-23 05:33N 44°18' E 008°29'0 0.0
2017-Mar-23 04:33N 44°18' E 008°29'0 0.0
2017-Mar-23 03:33N 44°18' E 008°29'0 0.0
2017-Mar-23 02:33N 44°18' E 008°29'0 0.0
2017-Mar-23 01:33N 44°18' E 008°29'0 0.0
2017-Mar-23 00:33N 44°18' E 008°29'0 0.0
2017-Mar-22 23:33N 44°18' E 008°29'0 0.0
2017-Mar-22 22:33N 44°18' E 008°29'0 0.0
2017-Mar-22 21:33N 44°18' E 008°29'0 0.0
2017-Mar-22 20:33N 44°18' E 008°29'0 0.0
2017-Mar-22 19:33N 44°18' E 008°29'0 0.0
2017-Mar-22 18:33N 44°18' E 008°29'0 0.0
2017-Mar-22 17:33N 44°18' E 008°29'0 0.0
2017-Mar-22 16:33N 44°18' E 008°29'0 0.0
2017-Mar-22 15:33N 44°18' E 008°29'0 0.0
2017-Mar-22 14:33N 44°18' E 008°29'0 0.0
2017-Mar-22 13:33N 44°18' E 008°29'0 0.0
2017-Mar-21 18:32N 44°18' E 008°29'0 0.0
2017-Mar-21 17:32N 44°18' E 008°29'0 0.0
2017-Mar-21 16:32N 44°18' E 008°29'0 0.0
2017-Mar-21 15:32N 44°18' E 008°29'0 0.0
2017-Mar-21 14:32N 44°18' E 008°29'0 0.0
2017-Mar-21 13:32N 44°18' E 008°29'0 0.0
2017-Mar-21 12:32N 44°18' E 008°29'2 2.2
2017-Mar-21 11:32N 44°17' E 008°28'0 0.2
2017-Mar-21 10:31N 44°17' E 008°28'2 2.0
2017-Mar-21 09:30N 44°18' E 008°29'0 0.0
2017-Mar-21 08:29N 44°18' E 008°29'0 0.0
2017-Mar-21 07:29N 44°18' E 008°29'0 0.0
2017-Mar-21 06:30N 44°18' E 008°29'0 0.0
2017-Mar-21 05:29N 44°18' E 008°29'0 0.0
2017-Mar-20 22:31N 44°18' E 008°29'0 0.0
2017-Mar-20 21:31N 44°18' E 008°29'0 0.0
2017-Mar-20 20:31N 44°18' E 008°29'0 0.0
2017-Mar-20 19:31N 44°18' E 008°29'0 0.0
2017-Mar-20 18:31N 44°18' E 008°29'0 0.0
2017-Mar-20 17:31N 44°18' E 008°29'0 0.0
2017-Mar-20 16:31N 44°18' E 008°29'0 0.0
2017-Mar-20 15:31N 44°18' E 008°29'0 0.0
2017-Mar-20 14:31N 44°18' E 008°29'0 0.0
2017-Mar-20 13:31N 44°18' E 008°29'0 0.0
2017-Mar-20 10:28N 44°18' E 008°29'0 0.0
2017-Mar-20 09:28N 44°18' E 008°29'2 1.9
2017-Mar-20 08:33N 44°17' E 008°28'1 0.6
2017-Mar-20 07:33N 44°17' E 008°28'1 1.1
2017-Mar-20 06:33N 44°17' E 008°29'1 0.1
2017-Mar-19 18:30N 44°18' E 008°29'0 0.0
2017-Mar-19 17:30N 44°18' E 008°29'0 0.0
2017-Mar-19 16:30N 44°18' E 008°29'0 0.0
2017-Mar-19 15:24N 44°18' E 008°29'0 0.0
2017-Mar-19 14:30N 44°18' E 008°29'0 0.0
2017-Mar-19 13:30N 44°18' E 008°29'0 0.0
2017-Mar-19 12:24N 44°18' E 008°29'0 0.0
2017-Mar-19 11:30N 44°18' E 008°29'0 0.0
2017-Mar-19 10:30N 44°18' E 008°29'0 0.0
2017-Mar-19 09:30N 44°18' E 008°29'0 0.0
2017-Mar-19 08:30N 44°18' E 008°29'0 0.0
2017-Mar-19 07:31N 44°18' E 008°29'0 0.0
2017-Mar-19 06:29N 44°18' E 008°29'0 0.0
2017-Mar-19 05:29N 44°18' E 008°29'0 0.0
2017-Mar-19 04:29N 44°18' E 008°29'0 0.0
2017-Mar-19 03:29N 44°18' E 008°29'0 0.0
2017-Mar-19 02:29N 44°18' E 008°29'0 0.0
2017-Mar-18 22:27N 44°18' E 008°29'0 0.0
2017-Mar-18 21:33N 44°18' E 008°29'0 0.0
2017-Mar-18 20:33N 44°19' E 008°29'0 0.3
2017-Mar-18 19:28N 44°19' E 008°30'0 0.0
2017-Mar-18 18:28N 44°19' E 008°30'0 0.0
2017-Mar-18 17:28N 44°19' E 008°30'0 0.0
2017-Mar-18 16:28N 44°19' E 008°30'0 0.0
2017-Mar-18 15:28N 44°19' E 008°30'0 0.0
2017-Mar-18 14:28N 44°19' E 008°30'0 0.0
2017-Mar-18 13:31N 44°19' E 008°30'0 0.3
2017-Mar-18 12:27N 44°18' E 008°29'0 0.0
2017-Mar-17 15:08N 44°18' E 008°29'0 0.0
2017-Mar-17 14:32N 44°18' E 008°29'0 0.4
2017-Mar-17 13:33N 44°19' E 008°30'0 0.4
2017-Mar-17 12:28N 44°18' E 008°29'0 0.0
2017-Mar-17 11:22N 44°18' E 008°29'0 0.0
2017-Mar-17 10:28N 44°18' E 008°29'0 0.0
2017-Mar-17 09:28N 44°18' E 008°29'0 0.0
2017-Mar-17 08:32N 44°18' E 008°29'1 0.7
2017-Mar-17 07:33N 44°19' E 008°30'1 0.6
2017-Mar-17 06:33N 44°19' E 008°29'0 0.1
2017-Mar-17 05:33N 44°18' E 008°29'0 0.0
2017-Mar-16 22:33N 44°18' E 008°29'0 0.0
2017-Mar-16 21:33N 44°18' E 008°29'0 0.0
2017-Mar-16 20:33N 44°18' E 008°29'0 0.0
2017-Mar-16 19:33N 44°18' E 008°29'0 0.4
2017-Mar-16 18:33N 44°19' E 008°30'0 0.5
2017-Mar-16 17:33N 44°19' E 008°30'1 0.8
2017-Mar-16 16:33N 44°18' E 008°29'0 0.0
2017-Mar-16 15:33N 44°18' E 008°29'0 0.0
2017-Mar-16 14:33N 44°18' E 008°29'0 0.0
2017-Mar-16 13:33N 44°18' E 008°29'0 0.0
2017-Mar-16 12:33N 44°18' E 008°29'0 0.0
2017-Mar-16 11:33N 44°18' E 008°29'0 0.0
2017-Mar-16 10:33N 44°18' E 008°29'0 0.0
2017-Mar-16 09:33N 44°18' E 008°29'0 0.0
2017-Mar-16 08:33N 44°18' E 008°29'0 0.0
2017-Mar-16 07:33N 44°18' E 008°29'0 0.0
2017-Mar-16 06:33N 44°18' E 008°29'0 0.0
2017-Mar-16 05:33N 44°18' E 008°29'0 0.0
2017-Mar-16 04:33N 44°18' E 008°29'0 0.0
2017-Mar-16 03:33N 44°18' E 008°29'0 0.0
2017-Mar-16 02:33N 44°18' E 008°29'0 0.0
2017-Mar-16 01:33N 44°18' E 008°29'0 0.0
2017-Mar-16 00:33N 44°18' E 008°29'0 0.0
2017-Mar-15 23:33N 44°18' E 008°29'0 0.0
2017-Mar-15 13:33N 44°18' E 008°29'0 0.0
2017-Mar-15 12:33N 44°18' E 008°29'0 0.0
2017-Mar-15 11:33N 44°18' E 008°29'0 0.0
2017-Mar-15 10:33N 44°18' E 008°29'0 0.0
2017-Mar-15 09:33N 44°18' E 008°29'0 0.0
2017-Mar-15 08:33N 44°18' E 008°29'0 0.0
2017-Mar-15 07:33N 44°18' E 008°29'0 0.0
2017-Mar-15 06:33N 44°18' E 008°29'0 0.4
2017-Mar-15 05:33N 44°19' E 008°30'0 0.4
2017-Mar-15 04:33N 44°18' E 008°29'0 0.0
2017-Mar-15 03:33N 44°18' E 008°29'0 0.0
2017-Mar-15 02:33N 44°18' E 008°29'0 0.0
2017-Mar-14 22:29N 44°18' E 008°29'0 0.0
2017-Mar-14 15:34N 44°18' E 008°29'0 0.3
2017-Mar-14 14:30N 44°19' E 008°29'  
Track history (hours):
 
Tides and Currents Weather Stations Pressure Air Temp Water Temp Dewpoint Dewpoint Depression Visibility Wind Speed Wind Dir Waves Ship Positions

Citta Di Savona

Last reported at 2017-Mar-24 14:19 UTC. Time now 2017-Mar-24 17:58 UTC.
Position N 44°18' E 008°29'.

Length 31 m; draft 4.2 m.

Type: Tug. MMSI: 247402000.

Date/timePositionNaut miles runAvg speedWind from/ knotsBaromVisibWave heightAir tempDewpointWater temp
2017-Mar-24 14:19N 44°18' E 008°29'0 0.0
2017-Mar-24 13:31N 44°18' E 008°29'0 0.0
2017-Mar-24 12:31N 44°18' E 008°29'0 0.0
2017-Mar-24 11:31N 44°18' E 008°29'3 3.3
2017-Mar-24 10:33N 44°16' E 008°27'1 1.0
2017-Mar-24 09:33N 44°17' E 008°28'3 2.9
2017-Mar-24 08:33N 44°19' E 008°31'0 0.4
2017-Mar-24 07:31N 44°19' E 008°30'1 0.7
2017-Mar-24 06:32N 44°18' E 008°29'0 0.0
2017-Mar-24 05:32N 44°18' E 008°29'0 0.0
2017-Mar-24 04:32N 44°18' E 008°29'0 0.0
2017-Mar-24 03:32N 44°18' E 008°29'0 0.0
2017-Mar-23 22:31N 44°18' E 008°29'0 0.0
2017-Mar-23 21:31N 44°18' E 008°29'0 0.0
2017-Mar-23 20:31N 44°18' E 008°29'0 0.0
2017-Mar-23 19:32N 44°18' E 008°29'0 0.0
2017-Mar-23 08:15N 44°18' E 008°29'0 0.0
2017-Mar-23 07:33N 44°18' E 008°29'0 0.0
2017-Mar-23 06:27N 44°18' E 008°29'0 0.0
2017-Mar-23 05:33N 44°18' E 008°29'0 0.0
2017-Mar-23 04:33N 44°18' E 008°29'0 0.0
2017-Mar-23 03:33N 44°18' E 008°29'0 0.0
2017-Mar-23 02:33N 44°18' E 008°29'0 0.0
2017-Mar-23 01:33N 44°18' E 008°29'0 0.0
2017-Mar-23 00:33N 44°18' E 008°29'0 0.0
2017-Mar-22 23:33N 44°18' E 008°29'0 0.0
2017-Mar-22 22:33N 44°18' E 008°29'0 0.0
2017-Mar-22 21:33N 44°18' E 008°29'0 0.0
2017-Mar-22 20:33N 44°18' E 008°29'0 0.0
2017-Mar-22 19:33N 44°18' E 008°29'0 0.0
2017-Mar-22 18:33N 44°18' E 008°29'0 0.0
2017-Mar-22 17:33N 44°18' E 008°29'0 0.0
2017-Mar-22 16:33N 44°18' E 008°29'0 0.0
2017-Mar-22 15:33N 44°18' E 008°29'0 0.0
2017-Mar-22 14:33N 44°18' E 008°29'0 0.0
2017-Mar-22 13:33N 44°18' E 008°29'0 0.0
2017-Mar-21 18:32N 44°18' E 008°29'0 0.0
2017-Mar-21 17:32N 44°18' E 008°29'0 0.0
2017-Mar-21 16:32N 44°18' E 008°29'0 0.0
2017-Mar-21 15:32N 44°18' E 008°29'0 0.0
2017-Mar-21 14:32N 44°18' E 008°29'0 0.0
2017-Mar-21 13:32N 44°18' E 008°29'0 0.0
2017-Mar-21 12:32N 44°18' E 008°29'2 2.2
2017-Mar-21 11:32N 44°17' E 008°28'0 0.2
2017-Mar-21 10:31N 44°17' E 008°28'2 2.0
2017-Mar-21 09:30N 44°18' E 008°29'0 0.0
2017-Mar-21 08:29N 44°18' E 008°29'0 0.0
2017-Mar-21 07:29N 44°18' E 008°29'0 0.0
2017-Mar-21 06:30N 44°18' E 008°29'0 0.0
2017-Mar-21 05:29N 44°18' E 008°29'0 0.0
2017-Mar-20 22:31N 44°18' E 008°29'0 0.0
2017-Mar-20 21:31N 44°18' E 008°29'0 0.0
2017-Mar-20 20:31N 44°18' E 008°29'0 0.0
2017-Mar-20 19:31N 44°18' E 008°29'0 0.0
2017-Mar-20 18:31N 44°18' E 008°29'0 0.0
2017-Mar-20 17:31N 44°18' E 008°29'0 0.0
2017-Mar-20 16:31N 44°18' E 008°29'0 0.0
2017-Mar-20 15:31N 44°18' E 008°29'0 0.0
2017-Mar-20 14:31N 44°18' E 008°29'0 0.0
2017-Mar-20 13:31N 44°18' E 008°29'0 0.0
2017-Mar-20 10:28N 44°18' E 008°29'0 0.0
2017-Mar-20 09:28N 44°18' E 008°29'2 1.9
2017-Mar-20 08:33N 44°17' E 008°28'1 0.6
2017-Mar-20 07:33N 44°17' E 008°28'1 1.1
2017-Mar-20 06:33N 44°17' E 008°29'1 0.1
2017-Mar-19 18:30N 44°18' E 008°29'0 0.0
2017-Mar-19 17:30N 44°18' E 008°29'0 0.0
2017-Mar-19 16:30N 44°18' E 008°29'0 0.0
2017-Mar-19 15:24N 44°18' E 008°29'0 0.0
2017-Mar-19 14:30N 44°18' E 008°29'0 0.0
2017-Mar-19 13:30N 44°18' E 008°29'0 0.0
2017-Mar-19 12:24N 44°18' E 008°29'0 0.0
2017-Mar-19 11:30N 44°18' E 008°29'0 0.0
2017-Mar-19 10:30N 44°18' E 008°29'0 0.0
2017-Mar-19 09:30N 44°18' E 008°29'0 0.0
2017-Mar-19 08:30N 44°18' E 008°29'0 0.0
2017-Mar-19 07:31N 44°18' E 008°29'0 0.0
2017-Mar-19 06:29N 44°18' E 008°29'0 0.0
2017-Mar-19 05:29N 44°18' E 008°29'0 0.0
2017-Mar-19 04:29N 44°18' E 008°29'0 0.0
2017-Mar-19 03:29N 44°18' E 008°29'0 0.0
2017-Mar-19 02:29N 44°18' E 008°29'0 0.0
2017-Mar-18 22:27N 44°18' E 008°29'0 0.0
2017-Mar-18 21:33N 44°18' E 008°29'0 0.0
2017-Mar-18 20:33N 44°19' E 008°29'0 0.3
2017-Mar-18 19:28N 44°19' E 008°30'0 0.0
2017-Mar-18 18:28N 44°19' E 008°30'0 0.0
2017-Mar-18 17:28N 44°19' E 008°30'0 0.0
2017-Mar-18 16:28N 44°19' E 008°30'0 0.0
2017-Mar-18 15:28N 44°19' E 008°30'0 0.0
2017-Mar-18 14:28N 44°19' E 008°30'0 0.0
2017-Mar-18 13:31N 44°19' E 008°30'0 0.3
2017-Mar-18 12:27N 44°18' E 008°29'0 0.0
2017-Mar-17 15:08N 44°18' E 008°29'0 0.0
2017-Mar-17 14:32N 44°18' E 008°29'0 0.4
2017-Mar-17 13:33N 44°19' E 008°30'0 0.4
2017-Mar-17 12:28N 44°18' E 008°29'0 0.0
2017-Mar-17 11:22N 44°18' E 008°29'0 0.0
2017-Mar-17 10:28N 44°18' E 008°29'0 0.0
2017-Mar-17 09:28N 44°18' E 008°29'0 0.0
2017-Mar-17 08:32N 44°18' E 008°29'1 0.7
2017-Mar-17 07:33N 44°19' E 008°30'1 0.6
2017-Mar-17 06:33N 44°19' E 008°29'0 0.1
2017-Mar-17 05:33N 44°18' E 008°29'0 0.0
2017-Mar-16 22:33N 44°18' E 008°29'0 0.0
2017-Mar-16 21:33N 44°18' E 008°29'0 0.0
2017-Mar-16 20:33N 44°18' E 008°29'0 0.0
2017-Mar-16 19:33N 44°18' E 008°29'0 0.4
2017-Mar-16 18:33N 44°19' E 008°30'0 0.5
2017-Mar-16 17:33N 44°19' E 008°30'1 0.8
2017-Mar-16 16:33N 44°18' E 008°29'0 0.0
2017-Mar-16 15:33N 44°18' E 008°29'0 0.0
2017-Mar-16 14:33N 44°18' E 008°29'0 0.0
2017-Mar-16 13:33N 44°18' E 008°29'0 0.0
2017-Mar-16 12:33N 44°18' E 008°29'0 0.0
2017-Mar-16 11:33N 44°18' E 008°29'0 0.0
2017-Mar-16 10:33N 44°18' E 008°29'0 0.0
2017-Mar-16 09:33N 44°18' E 008°29'0 0.0
2017-Mar-16 08:33N 44°18' E 008°29'0 0.0
2017-Mar-16 07:33N 44°18' E 008°29'0 0.0
2017-Mar-16 06:33N 44°18' E 008°29'0 0.0
2017-Mar-16 05:33N 44°18' E 008°29'0 0.0
2017-Mar-16 04:33N 44°18' E 008°29'0 0.0
2017-Mar-16 03:33N 44°18' E 008°29'0 0.0
2017-Mar-16 02:33N 44°18' E 008°29'0 0.0
2017-Mar-16 01:33N 44°18' E 008°29'0 0.0
2017-Mar-16 00:33N 44°18' E 008°29'0 0.0
2017-Mar-15 23:33N 44°18' E 008°29'0 0.0
2017-Mar-15 13:33N 44°18' E 008°29'0 0.0
2017-Mar-15 12:33N 44°18' E 008°29'0 0.0
2017-Mar-15 11:33N 44°18' E 008°29'0 0.0
2017-Mar-15 10:33N 44°18' E 008°29'0 0.0
2017-Mar-15 09:33N 44°18' E 008°29'0 0.0
2017-Mar-15 08:33N 44°18' E 008°29'0 0.0
2017-Mar-15 07:33N 44°18' E 008°29'0 0.0
2017-Mar-15 06:33N 44°18' E 008°29'0 0.4
2017-Mar-15 05:33N 44°19' E 008°30'0 0.4
2017-Mar-15 04:33N 44°18' E 008°29'0 0.0
2017-Mar-15 03:33N 44°18' E 008°29'0 0.0
2017-Mar-15 02:33N 44°18' E 008°29'0 0.0
2017-Mar-14 22:29N 44°18' E 008°29'0 0.0
2017-Mar-14 15:34N 44°18' E 008°29'0 0.3
2017-Mar-14 14:30N 44°19' E 008°29'  

Dump ship's entire track history